Goloson International Airport
MHLC : now visible

Airfield :











YOU CAN JOIN US ON...

 
LOGIN :

Register | Disclaimer

   EN    FR    IT 

 









Legend :    VFR   Marginal VFR   IFR   Intensive IFR   Very Intensive IFR
Visi :
Ceiling :
>= 8 km
>= 3000ft
5 to 8 km
1000 to 3000 ft
1500m to 5 km
500 to 1000 ft
800 to 1500m
200 to 500 ft
< 800m
< 200 ft
Symbols :   Thunderstorms  Fog  Heavy snow  Heavy precipitations  Wind > 20 kt







- Airport Elevation : 49 ft
- IATA code : LCE


MHLC - Goloson International

CURRENT METAR :
  • 180300Z 10004KT 9999 TS FEW022 FEW024CB SCT200 28/25 Q1013 A2992 NOSIG

EXPIRED METARs :
  • 180200Z 11003KT 9999 FEW026CB 29/25 Q1012 A2989 NOSIG
  • 180100Z 07004KT 9999 FEW026CB 29/25 Q1012 A2989 RETS NOSIG

TAF COR TAF MHLC
Valid from the 18 at 00:00 until the 19 at 00:00 UTC


172225Z 1800/1824 08010KT 9999 SCT025TCU TX32/1820Z TN23/1812Z
TEMPO 1804/1810 6000 -TSRA SCT025CB SCT080
BECMG 1810/1812 00000KT 8000 VCSH SCT024 BKN070
BECMG 1814/1816 35006KT 9999 NSW FEW025 SCT080
BECMG 1820/1822 07008KT FEW025CB SCT028TCU
No reported NOTAMs for that airfield.



MET'MAP, your aeronautical weather chart ! - Copyright ORBIFLY December 2007 - Disclaimer

ORBIFLY MET'MAP TEAM :

Programming & Development : Alexandra Zaïnal
Concept & Development : Baudouin d'Aumeries
Co-Development & Prog : Marc-Olivier Méhu
Technical & hardware support : Manuel Goepfert

Contact : metmap@orbifly.com




SOURCES & CREDITS :

   NOAA       Earth
Advisory